createdAt,value
2018-06-19T00:01:20.139Z,97769.00
2018-06-19T00:03:56.372Z,97766.00
2018-06-19T00:06:30.675Z,97779.00
2018-06-19T00:09:03.239Z,97776.00
2018-06-19T00:11:38.849Z,97777.00
2018-06-19T00:14:12.897Z,97774.00
2018-06-19T00:16:46.007Z,97773.00
2018-06-19T00:19:19.074Z,97773.00
2018-06-19T00:22:01.579Z,97778.00
2018-06-19T00:24:39.561Z,97777.00
2018-06-19T00:27:09.954Z,97775.00
2018-06-19T00:29:53.169Z,97777.00
2018-06-19T00:32:26.515Z,97773.00
2018-06-19T00:35:00.362Z,97773.00
2018-06-19T00:37:32.284Z,97768.00
2018-06-19T00:40:02.223Z,97762.00
2018-06-19T00:42:34.123Z,97769.00
2018-06-19T00:45:04.098Z,97772.00
2018-06-19T00:47:37.569Z,97775.00
2018-06-19T00:50:10.770Z,97773.00
2018-06-19T00:52:41.790Z,97777.00
2018-06-19T00:55:12.714Z,97777.00
2018-06-19T00:57:44.222Z,97777.00
2018-06-19T01:00:15.911Z,97781.00
2018-06-19T01:02:45.874Z,97788.00
2018-06-19T01:05:16.790Z,97787.00
2018-06-19T01:08:04.325Z,97788.00
2018-06-19T01:10:37.730Z,97786.00
2018-06-19T01:13:11.418Z,97787.00
2018-06-19T01:15:49.410Z,97792.00
2018-06-19T01:18:20.308Z,97795.00
2018-06-19T01:20:54.179Z,97797.00
2018-06-19T01:23:24.224Z,97794.00
2018-06-19T01:26:07.572Z,97797.00
2018-06-19T01:28:41.405Z,97800.00
2018-06-19T01:31:29.874Z,97791.00
2018-06-19T01:34:00.367Z,97790.00
2018-06-19T01:36:33.158Z,97797.00
2018-06-19T01:39:13.185Z,97791.00
2018-06-19T01:41:45.680Z,97798.00
2018-06-19T01:44:22.441Z,97800.00
2018-06-19T01:46:55.034Z,97801.00
2018-06-19T01:49:30.178Z,97810.00
2018-06-19T01:52:06.115Z,97805.00
2018-06-19T01:54:41.947Z,97804.00
2018-06-19T01:57:20.285Z,97804.00
2018-06-19T02:00:01.448Z,97810.00
2018-06-19T02:02:31.865Z,97810.00
2018-06-19T02:05:04.851Z,97815.00
2018-06-19T02:07:44.991Z,97815.00
2018-06-19T02:10:15.859Z,97816.00
2018-06-19T02:12:58.088Z,97822.00
2018-06-19T02:15:28.892Z,97826.00
2018-06-19T02:18:00.553Z,97832.00
2018-06-19T02:20:33.039Z,97836.00
2018-06-19T02:23:09.390Z,97832.00
2018-06-19T02:25:41.131Z,97840.00
2018-06-19T02:28:13.034Z,97837.00
2018-06-19T02:30:56.133Z,97832.00
2018-06-19T02:33:32.540Z,97834.00
2018-06-19T02:36:03.123Z,97840.00
2018-06-19T02:38:34.817Z,97842.00
2018-06-19T02:41:06.452Z,97836.00
2018-06-19T02:43:50.423Z,97836.00
2018-06-19T02:46:24.364Z,97849.00
2018-06-19T02:48:58.415Z,97852.00
2018-06-19T02:51:29.986Z,97844.00
2018-06-19T02:54:26.106Z,97843.00
2018-06-19T02:57:03.474Z,97848.00
2018-06-19T02:59:38.945Z,97850.00
2018-06-19T03:02:14.047Z,97853.00
2018-06-19T03:04:48.078Z,97852.00
2018-06-19T03:07:24.694Z,97853.00
2018-06-19T03:10:11.788Z,97853.00
2018-06-19T03:13:10.531Z,97855.00
2018-06-19T03:15:46.538Z,97857.00
2018-06-19T03:18:20.816Z,97859.00
2018-06-19T03:20:54.477Z,97857.00
2018-06-19T03:23:36.882Z,97861.00
2018-06-19T03:26:12.839Z,97857.00
2018-06-19T03:28:45.216Z,97863.00
2018-06-19T03:31:24.128Z,97861.00
2018-06-19T03:33:55.836Z,97861.00
2018-06-19T03:36:26.793Z,97865.00
2018-06-19T03:38:59.272Z,97873.00
2018-06-19T03:41:37.901Z,97869.00
2018-06-19T03:44:08.866Z,97874.00
2018-06-19T03:46:46.844Z,97872.00
2018-06-19T03:49:24.924Z,97868.00
2018-06-19T03:51:56.793Z,97865.00
2018-06-19T03:54:28.478Z,97871.00
2018-06-19T04:00:02.672Z,97879.00
2018-06-19T04:05:45.763Z,97882.00
2018-06-19T04:08:21.726Z,97882.00
2018-06-19T04:10:56.205Z,97886.00
2018-06-19T04:13:54.171Z,97889.00
2018-06-19T04:16:31.151Z,97882.00
2018-06-19T04:19:07.025Z,97887.00
2018-06-19T04:21:55.456Z,97886.00
2018-06-19T04:24:31.958Z,97887.00
2018-06-19T04:27:03.324Z,97887.00
2018-06-19T04:29:35.889Z,97889.00
2018-06-19T04:32:11.703Z,97885.00
2018-06-19T04:34:43.682Z,97890.00
2018-06-19T04:37:14.410Z,97889.00
2018-06-19T04:39:56.737Z,97888.00
2018-06-19T04:42:28.561Z,97893.00
2018-06-19T04:45:02.911Z,97898.00
2018-06-19T04:47:37.211Z,97910.00
2018-06-19T04:50:14.449Z,97903.00
2018-06-19T04:52:47.474Z,97907.00
2018-06-19T04:55:33.623Z,97912.00
2018-06-19T04:58:20.388Z,97913.00
2018-06-19T05:01:02.935Z,97912.00
2018-06-19T05:03:33.506Z,97914.00
2018-06-19T05:06:23.231Z,97913.00
2018-06-19T05:08:53.834Z,97910.00
2018-06-19T05:11:26.424Z,97913.00
2018-06-19T05:14:02.775Z,97910.00
2018-06-19T05:16:40.066Z,97917.00
2018-06-19T05:19:13.200Z,97916.00
2018-06-19T05:21:50.687Z,97907.00
2018-06-19T05:24:25.258Z,97911.00
2018-06-19T05:26:56.951Z,97910.00
2018-06-19T05:29:38.610Z,97918.00
2018-06-19T05:32:14.484Z,97918.00
2018-06-19T05:34:49.037Z,97921.00
2018-06-19T05:37:31.717Z,97923.00
2018-06-19T05:40:06.118Z,97918.00
2018-06-19T05:42:41.208Z,97921.00
2018-06-19T05:45:14.958Z,97931.00
2018-06-19T05:47:51.963Z,97928.00
2018-06-19T05:50:34.146Z,97927.00
2018-06-19T05:53:05.943Z,97925.00
2018-06-19T05:55:38.571Z,97928.00
2018-06-19T05:58:09.357Z,97931.00
2018-06-19T06:00:43.530Z,97931.00
2018-06-19T06:03:24.241Z,97931.00
2018-06-19T06:05:58.499Z,97931.00
2018-06-19T06:08:36.404Z,97923.00
2018-06-19T06:11:15.402Z,97927.00
2018-06-19T06:13:51.478Z,97931.00
2018-06-19T06:16:30.699Z,97930.00
2018-06-19T06:19:11.468Z,97931.00
2018-06-19T06:21:47.778Z,97927.00
2018-06-19T06:24:29.119Z,97936.00
2018-06-19T06:27:18.063Z,97931.00
2018-06-19T06:29:53.284Z,97930.00
2018-06-19T06:32:29.635Z,97925.00
2018-06-19T06:35:13.903Z,97929.00
2018-06-19T06:37:44.553Z,97931.00
2018-06-19T06:40:26.663Z,97932.00
2018-06-19T06:43:01.416Z,97932.00
2018-06-19T06:45:32.114Z,97933.00
2018-06-19T06:48:13.757Z,97932.00
2018-06-19T06:50:58.037Z,97928.00
2018-06-19T06:53:47.176Z,97931.00
2018-06-19T06:56:23.809Z,97927.00
2018-06-19T06:58:57.389Z,97924.00
2018-06-19T07:01:37.746Z,97927.00
2018-06-19T07:04:10.383Z,97927.00
2018-06-19T07:07:04.921Z,97922.00
2018-06-19T07:09:35.583Z,97925.00
2018-06-19T07:12:07.955Z,97926.00
2018-06-19T07:14:40.260Z,97924.00
2018-06-19T07:17:11.702Z,97925.00
2018-06-19T07:19:44.135Z,97921.00
2018-06-19T07:22:14.648Z,97920.00
2018-06-19T07:24:46.674Z,97922.00
2018-06-19T07:27:17.288Z,97921.00
2018-06-19T07:29:47.226Z,97921.00
2018-06-19T07:32:17.728Z,97921.00
2018-06-19T07:34:49.235Z,97918.00
2018-06-19T07:37:29.975Z,97916.00
2018-06-19T07:40:10.694Z,97914.00
2018-06-19T07:42:46.087Z,97912.00
2018-06-19T07:45:23.995Z,97919.00
2018-06-19T07:47:58.125Z,97920.00
2018-06-19T07:50:32.496Z,97906.00
2018-06-19T07:53:06.579Z,97911.00
2018-06-19T07:55:52.468Z,97908.00
2018-06-19T07:58:51.194Z,97901.00
2018-06-19T08:01:34.101Z,97899.00
2018-06-19T08:04:22.184Z,97899.00
2018-06-19T08:06:53.236Z,97895.00
2018-06-19T08:09:33.156Z,97896.00
2018-06-19T08:12:08.708Z,97895.00
2018-06-19T08:14:52.365Z,97893.00
2018-06-19T08:17:33.336Z,97894.00
2018-06-19T08:20:05.866Z,97893.00
2018-06-19T08:22:41.073Z,97892.00
2018-06-19T08:25:19.528Z,97890.00
2018-06-19T08:27:51.132Z,97891.00
2018-06-19T08:30:24.999Z,97885.00
2018-06-19T08:33:07.382Z,97888.00
2018-06-19T08:35:44.672Z,97884.00
2018-06-19T08:38:18.648Z,97881.00
2018-06-19T08:40:53.843Z,97877.00
2018-06-19T08:43:30.357Z,97884.00
2018-06-19T08:46:04.889Z,97881.00
2018-06-19T08:48:52.421Z,97882.00
2018-06-19T08:51:29.139Z,97879.00
2018-06-19T08:54:07.295Z,97877.00
2018-06-19T08:56:43.953Z,97871.00
2018-06-19T08:59:20.422Z,97870.00
2018-06-19T09:02:07.201Z,97875.00
2018-06-19T09:05:02.198Z,97876.00
2018-06-19T09:07:40.118Z,97872.00
2018-06-19T09:10:13.094Z,97875.00
2018-06-19T09:12:50.822Z,97876.00
2018-06-19T09:15:27.683Z,97879.00
2018-06-19T09:18:12.535Z,97877.00
2018-06-19T09:20:53.539Z,97874.00
2018-06-19T09:23:27.322Z,97872.00
2018-06-19T09:26:01.648Z,97869.00
2018-06-19T09:28:38.100Z,97870.00
2018-06-19T09:31:27.582Z,97871.00
2018-06-19T09:34:07.466Z,97860.00
2018-06-19T09:36:43.301Z,97862.00
2018-06-19T09:39:18.043Z,97859.00
2018-06-19T09:41:53.879Z,97861.00
2018-06-19T09:44:25.198Z,97856.00
2018-06-19T09:47:01.770Z,97853.00
2018-06-19T09:49:38.058Z,97857.00
2018-06-19T09:52:10.642Z,97849.00
2018-06-19T09:54:46.895Z,97846.00
2018-06-19T09:57:22.826Z,97848.00
2018-06-19T10:00:05.851Z,97848.00
2018-06-19T10:03:04.746Z,97849.00
2018-06-19T10:05:37.691Z,97843.00
2018-06-19T10:08:16.676Z,97846.00
2018-06-19T10:10:57.858Z,97843.00
2018-06-19T10:13:44.482Z,97846.00
2018-06-19T10:16:28.402Z,97849.00
2018-06-19T10:19:11.563Z,97839.00
2018-06-19T10:21:42.305Z,97841.00
2018-06-19T10:24:15.987Z,97846.00
2018-06-19T10:26:51.513Z,97845.00
2018-06-19T10:29:24.326Z,97843.00
2018-06-19T10:32:16.623Z,97850.00
2018-06-19T10:35:00.094Z,97844.00
2018-06-19T10:37:37.038Z,97840.00
2018-06-19T10:40:07.624Z,97839.00
2018-06-19T10:42:41.582Z,97834.00
2018-06-19T10:45:17.871Z,97838.00
2018-06-19T10:47:51.688Z,97833.00
2018-06-19T10:50:28.110Z,97833.00
2018-06-19T10:52:59.541Z,97837.00
2018-06-19T10:55:30.126Z,97827.00
2018-06-19T10:58:02.468Z,97823.00
2018-06-19T11:00:37.943Z,97823.00
2018-06-19T11:03:26.364Z,97826.00
2018-06-19T11:06:02.948Z,97829.00
2018-06-19T11:08:55.502Z,97829.00
2018-06-19T11:11:26.827Z,97828.00
2018-06-19T11:14:04.635Z,97830.00
2018-06-19T11:16:46.755Z,97827.00
2018-06-19T11:19:20.947Z,97829.00
2018-06-19T11:22:00.333Z,97826.00
2018-06-19T11:24:36.624Z,97830.00
2018-06-19T11:27:17.436Z,97836.00
2018-06-19T11:29:58.789Z,97833.00
2018-06-19T11:32:31.401Z,97823.00
2018-06-19T11:35:09.572Z,97822.00
2018-06-19T11:37:40.626Z,97824.00
2018-06-19T11:40:11.143Z,97823.00
2018-06-19T11:42:46.211Z,97817.00
2018-06-19T11:45:19.979Z,97819.00
2018-06-19T11:47:52.753Z,97817.00
2018-06-19T11:50:24.298Z,97816.00
2018-06-19T11:53:01.135Z,97821.00
2018-06-19T11:55:32.741Z,97815.00
2018-06-19T11:58:04.584Z,97814.00
2018-06-19T12:00:40.757Z,97812.00
2018-06-19T12:03:13.544Z,97818.00
2018-06-19T12:05:44.987Z,97812.00
2018-06-19T12:08:32.007Z,97806.00
2018-06-19T12:11:02.744Z,97805.00
2018-06-19T12:13:39.055Z,97800.00
2018-06-19T12:16:09.643Z,97801.00
2018-06-19T12:18:47.539Z,97802.00
2018-06-19T12:21:19.310Z,97799.00
2018-06-19T12:23:51.537Z,97793.00
2018-06-19T12:26:23.919Z,97796.00
2018-06-19T12:28:54.627Z,97789.00
2018-06-19T12:31:25.596Z,97777.00
2018-06-19T12:34:08.497Z,97783.00
2018-06-19T12:36:46.283Z,97777.00
2018-06-19T12:39:19.977Z,97772.00
2018-06-19T12:41:58.498Z,97768.00
2018-06-19T12:44:32.715Z,97767.00
2018-06-19T12:47:09.046Z,97769.00
2018-06-19T12:50:01.319Z,97763.00
2018-06-19T12:52:49.019Z,97767.00
2018-06-19T12:55:31.903Z,97755.00
2018-06-19T12:58:06.798Z,97762.00
2018-06-19T13:00:44.608Z,97765.00
2018-06-19T13:03:33.756Z,97762.00
2018-06-19T13:06:24.582Z,97755.00
2018-06-19T13:09:02.039Z,97754.00
2018-06-19T13:11:34.322Z,97752.00
2018-06-19T13:14:26.955Z,97755.00
2018-06-19T13:17:15.914Z,97744.00
2018-06-19T13:20:07.330Z,97741.00
2018-06-19T13:22:48.421Z,97746.00
2018-06-19T13:25:25.908Z,97751.00
2018-06-19T13:28:08.805Z,97750.00
2018-06-19T13:30:57.797Z,97740.00
2018-06-19T13:33:34.909Z,97738.00
2018-06-19T13:36:11.138Z,97738.00
2018-06-19T13:38:41.946Z,97739.00
2018-06-19T13:41:29.391Z,97740.00
2018-06-19T13:44:19.561Z,97739.00
2018-06-19T13:46:52.370Z,97732.00
2018-06-19T13:49:22.747Z,97732.00
2018-06-19T13:51:55.810Z,97732.00
2018-06-19T13:54:26.750Z,97726.00
2018-06-19T13:57:44.143Z,97726.00
2018-06-19T14:00:18.666Z,97719.00
2018-06-19T14:02:55.059Z,97719.00
2018-06-19T14:05:26.974Z,97716.00
2018-06-19T14:08:15.373Z,97720.00
2018-06-19T14:11:03.366Z,97722.00
2018-06-19T14:13:40.071Z,97719.00
2018-06-19T14:16:16.343Z,97719.00
2018-06-19T14:18:47.206Z,97717.00
2018-06-19T14:21:17.948Z,97724.00
2018-06-19T14:23:55.806Z,97712.00
2018-06-19T14:26:27.227Z,97714.00
2018-06-19T14:29:00.892Z,97712.00
2018-06-19T14:31:43.183Z,97705.00
2018-06-19T14:34:14.690Z,97705.00
2018-06-19T14:36:56.118Z,97713.00
2018-06-19T14:39:30.925Z,97703.00
2018-06-19T14:42:03.620Z,97703.00
2018-06-19T14:44:38.661Z,97700.00
2018-06-19T14:47:16.186Z,97704.00
2018-06-19T14:49:54.446Z,97699.00
2018-06-19T14:52:44.073Z,97702.00
2018-06-19T14:55:30.744Z,97692.00
2018-06-19T14:58:01.383Z,97695.00
2018-06-19T15:00:36.827Z,97696.00
2018-06-19T15:03:07.348Z,97691.00
2018-06-19T15:05:42.068Z,97693.00
2018-06-19T15:08:25.755Z,97696.00
2018-06-19T15:10:59.914Z,97689.00
2018-06-19T15:13:37.545Z,97683.00
2018-06-19T15:16:15.711Z,97682.00
2018-06-19T15:18:48.092Z,97672.00
2018-06-19T15:21:25.950Z,97678.00
2018-06-19T15:23:56.547Z,97679.00
2018-06-19T15:26:55.720Z,97672.00
2018-06-19T15:29:34.017Z,97670.00
2018-06-19T15:32:22.629Z,97668.00
2018-06-19T15:35:00.614Z,97660.00
2018-06-19T15:37:32.151Z,97660.00
2018-06-19T15:40:17.155Z,97663.00
2018-06-19T15:42:52.267Z,97665.00
2018-06-19T15:45:26.531Z,97662.00
2018-06-19T15:48:25.338Z,97648.00
2018-06-19T15:50:58.240Z,97658.00
2018-06-19T15:53:39.910Z,97655.00
2018-06-19T15:56:12.968Z,97655.00
2018-06-19T15:59:02.299Z,97650.00
2018-06-19T16:01:33.967Z,97652.00
2018-06-19T16:04:06.616Z,97653.00
2018-06-19T16:06:49.450Z,97659.00
2018-06-19T16:09:23.330Z,97657.00
2018-06-19T16:11:55.637Z,97656.00
2018-06-19T16:14:27.048Z,97650.00
2018-06-19T16:17:01.742Z,97648.00
2018-06-19T16:19:43.931Z,97645.00
2018-06-19T16:22:14.873Z,97648.00
2018-06-19T16:24:46.807Z,97648.00
2018-06-19T16:27:20.081Z,97646.00
2018-06-19T16:30:03.839Z,97650.00
2018-06-19T16:32:34.598Z,97646.00
2018-06-19T16:35:28.575Z,97646.00
2018-06-19T16:38:07.653Z,97644.00
2018-06-19T16:40:47.672Z,97643.00
2018-06-19T16:43:21.895Z,97640.00
2018-06-19T16:46:01.922Z,97633.00
2018-06-19T16:48:38.058Z,97630.00
2018-06-19T16:51:14.111Z,97628.00
2018-06-19T16:53:55.135Z,97631.00
2018-06-19T16:56:32.193Z,97631.00
2018-06-19T16:59:03.569Z,97630.00
2018-06-19T17:01:38.146Z,97638.00
2018-06-19T17:04:27.656Z,97635.00
2018-06-19T17:07:17.256Z,97640.00
2018-06-19T17:09:56.438Z,97637.00
2018-06-19T17:12:27.948Z,97636.00
2018-06-19T17:15:00.188Z,97631.00
2018-06-19T17:17:33.021Z,97635.00
2018-06-19T17:20:11.161Z,97635.00
2018-06-19T17:22:48.018Z,97630.00
2018-06-19T17:25:42.815Z,97630.00
2018-06-19T17:31:26.432Z,97628.00
2018-06-19T17:34:01.844Z,97626.00
2018-06-19T17:37:22.134Z,97626.00
2018-06-19T17:40:07.964Z,97625.00
2018-06-19T17:43:11.402Z,97624.00
2018-06-19T17:45:55.076Z,97630.00
2018-06-19T17:48:27.727Z,97622.00
2018-06-19T17:51:02.273Z,97623.00
2018-06-19T17:53:53.267Z,97620.00
2018-06-19T17:56:30.020Z,97618.00
2018-06-19T17:59:15.816Z,97617.00
2018-06-19T18:05:02.005Z,97619.00
2018-06-19T18:07:34.163Z,97620.00
2018-06-19T18:10:21.343Z,97619.00
2018-06-19T18:13:01.502Z,97611.00
2018-06-19T18:15:38.302Z,97619.00
2018-06-19T18:18:11.164Z,97615.00
2018-06-19T18:20:43.726Z,97620.00
2018-06-19T18:23:18.123Z,97613.00
2018-06-19T18:25:53.967Z,97622.00
2018-06-19T18:28:25.439Z,97625.00
2018-06-19T18:31:03.640Z,97618.00
2018-06-19T18:33:39.879Z,97618.00
2018-06-19T18:36:13.773Z,97616.00
2018-06-19T18:38:45.577Z,97613.00
2018-06-19T18:41:21.138Z,97613.00
2018-06-19T18:43:56.710Z,97618.00
2018-06-19T18:46:30.802Z,97614.00
2018-06-19T18:49:05.719Z,97608.00
2018-06-19T18:51:36.172Z,97615.00
2018-06-19T18:54:07.025Z,97618.00
2018-06-19T18:56:38.867Z,97620.00
2018-06-19T18:59:11.525Z,97619.00
2018-06-19T19:01:42.696Z,97624.00
2018-06-19T19:04:14.015Z,97621.00
2018-06-19T19:06:44.527Z,97612.00
2018-06-19T19:09:19.780Z,97619.00
2018-06-19T19:11:50.746Z,97620.00
2018-06-19T19:14:21.454Z,97620.00
2018-06-19T19:17:05.152Z,97620.00
2018-06-19T19:19:47.715Z,97622.00
2018-06-19T19:22:27.916Z,97622.00
2018-06-19T19:25:09.266Z,97623.00
2018-06-19T19:27:48.325Z,97621.00
2018-06-19T19:30:20.846Z,97626.00
2018-06-19T19:32:53.680Z,97630.00
2018-06-19T19:35:25.382Z,97632.00
2018-06-19T19:38:11.523Z,97631.00
2018-06-19T19:40:49.501Z,97637.00
2018-06-19T19:43:23.753Z,97641.00
2018-06-19T19:46:02.789Z,97643.00
2018-06-19T19:48:43.126Z,97644.00
2018-06-19T19:51:13.908Z,97643.00
2018-06-19T19:53:49.836Z,97648.00
2018-06-19T19:56:25.661Z,97644.00
2018-06-19T19:59:06.731Z,97645.00
2018-06-19T20:01:42.003Z,97654.00
2018-06-19T20:04:53.117Z,97650.00
2018-06-19T20:07:27.406Z,97651.00
2018-06-19T20:10:16.826Z,97656.00
2018-06-19T20:13:03.787Z,97655.00
2018-06-19T20:16:20.409Z,97654.00
2018-06-19T20:19:19.494Z,97658.00
2018-06-19T20:22:00.873Z,97661.00
2018-06-19T20:28:15.267Z,97661.00
2018-06-19T20:31:10.851Z,97664.00
2018-06-19T20:33:55.862Z,97670.00
2018-06-19T20:36:43.357Z,97663.00
2018-06-19T20:39:20.190Z,97665.00
2018-06-19T20:46:12.527Z,97665.00
2018-06-19T20:48:44.284Z,97659.00
2018-06-19T20:51:32.430Z,97655.00
2018-06-19T20:54:06.348Z,97658.00
2018-06-19T20:56:49.531Z,97660.00
2018-06-19T20:59:32.001Z,97657.00
2018-06-19T21:02:10.604Z,97656.00
2018-06-19T21:04:42.716Z,97656.00
2018-06-19T21:07:23.529Z,97660.00
2018-06-19T21:09:55.153Z,97660.00
2018-06-19T21:12:37.174Z,97658.00
2018-06-19T21:15:10.900Z,97663.00
2018-06-19T21:17:45.248Z,97663.00
2018-06-19T21:20:16.494Z,97663.00
2018-06-19T21:23:06.751Z,97665.00
2018-06-19T21:25:37.631Z,97659.00
2018-06-19T21:28:16.441Z,97653.00
2018-06-19T21:30:53.220Z,97659.00
2018-06-19T21:33:27.824Z,97659.00
2018-06-19T21:36:14.458Z,97662.00
2018-06-19T21:38:44.986Z,97658.00
2018-06-19T21:41:15.560Z,97655.00
2018-06-19T21:43:46.628Z,97654.00
2018-06-19T21:46:20.801Z,97659.00
2018-06-19T21:48:58.098Z,97662.00
2018-06-19T21:51:46.112Z,97664.00
2018-06-19T21:54:21.363Z,97663.00
2018-06-19T21:57:10.499Z,97660.00
2018-06-19T21:59:55.290Z,97664.00
2018-06-19T22:02:33.641Z,97662.00
2018-06-19T22:05:18.311Z,97656.00
2018-06-19T22:07:57.190Z,97664.00
2018-06-19T22:10:28.091Z,97664.00
2018-06-19T22:13:05.849Z,97660.00
2018-06-19T22:15:36.355Z,97663.00
2018-06-19T22:18:17.817Z,97662.00
2018-06-19T22:20:56.657Z,97662.00
2018-06-19T22:23:39.745Z,97663.00
2018-06-19T22:26:11.455Z,97661.00
2018-06-19T22:28:43.428Z,97664.00
2018-06-19T22:31:29.525Z,97662.00
2018-06-19T22:34:01.408Z,97662.00
2018-06-19T22:36:44.308Z,97661.00
2018-06-19T22:39:16.734Z,97660.00
2018-06-19T22:41:52.708Z,97666.00
2018-06-19T22:44:23.494Z,97667.00
2018-06-19T22:47:05.954Z,97662.00
2018-06-19T22:49:38.587Z,97664.00
2018-06-19T22:52:14.652Z,97664.00
2018-06-19T22:54:58.224Z,97661.00
2018-06-19T22:57:28.863Z,97659.00
2018-06-19T23:00:01.493Z,97657.00
2018-06-19T23:02:43.034Z,97660.00
2018-06-19T23:08:18.380Z,97658.00
2018-06-19T23:10:49.678Z,97656.00
2018-06-19T23:13:31.520Z,97655.00
2018-06-19T23:16:06.761Z,97656.00
2018-06-19T23:18:38.212Z,97658.00
2018-06-19T23:21:17.195Z,97661.00
2018-06-19T23:23:49.754Z,97654.00
2018-06-19T23:26:20.775Z,97658.00
2018-06-19T23:28:53.528Z,97659.00
2018-06-19T23:31:28.804Z,97658.00
2018-06-19T23:37:00.532Z,97658.00
2018-06-19T23:39:35.008Z,97655.00
2018-06-19T23:42:06.395Z,97661.00
2018-06-19T23:44:39.435Z,97663.00
2018-06-19T23:47:20.252Z,97658.00
2018-06-19T23:49:56.161Z,97657.00
2018-06-19T23:52:30.073Z,97653.00
2018-06-19T23:55:17.111Z,97654.00
2018-06-19T23:58:07.382Z,97651.00
